Time;durP1;ratioP1;P1;durP2;ratioP2;P2;SDS_P1;SDS_P2;PMS_P1;PMS_P2;Temp;Humidity;BMP_temperature;BMP_pressure;BME280_temperature;BME280_humidity;BME280_pressure;Samples;Min_cycle;Max_cycle;Signal;HPM_P1;HPM_P2
2021/11/01 00:00:33;;;;;;;18.58;3.78;;;11.30;99.90;;;;;;5038917;28;20537;-76
2021/11/01 00:02:58;;;;;;;11.18;2.78;;;11.20;99.90;;;;;;5038788;28;20233;-76
2021/11/01 00:05:25;;;;;;;10.48;3.67;;;11.20;99.90;;;;;;5037391;28;20627;-76
2021/11/01 00:07:52;;;;;;;14.75;2.78;;;11.20;99.90;;;;;;5038889;28;20176;-77
2021/11/01 00:10:17;;;;;;;10.07;2.95;;;11.20;99.90;;;;;;5038405;28;20183;-77
2021/11/01 00:12:44;;;;;;;11.60;2.72;;;11.20;99.90;;;;;;5038469;28;20576;-77
2021/11/01 00:15:10;;;;;;;6.95;1.60;;;11.10;99.90;;;;;;5038854;28;20168;-77
2021/11/01 00:17:37;;;;;;;8.88;2.67;;;11.20;99.90;;;;;;5038468;28;20175;-77
2021/11/01 00:20:07;;;;;;;4.93;2.38;;;11.20;99.90;;;;;;5038322;28;20255;-78
2021/11/01 00:22:34;;;;;;;13.35;3.45;;;11.20;99.90;;;;;;5038140;28;20171;-77
2021/11/01 00:25:01;;;;;;;6.53;1.55;;;11.30;99.90;;;;;;5038444;28;20532;-77
2021/11/01 00:27:26;;;;;;;9.00;2.60;;;11.20;99.90;;;;;;5038471;28;20694;-77
2021/11/01 00:29:55;;;;;;;14.10;2.15;;;11.10;99.90;;;;;;5038038;28;20188;-77
2021/11/01 00:32:21;;;;;;;8.82;2.92;;;11.00;99.90;;;;;;5038079;28;20187;-77
2021/11/01 00:34:47;;;;;;;7.55;2.42;;;11.10;99.90;;;;;;5038017;28;20276;-77
2021/11/01 00:37:12;;;;;;;9.80;2.45;;;11.20;99.90;;;;;;5038562;28;20593;-77
2021/11/01 00:39:44;;;;;;;11.45;2.53;;;11.30;99.90;;;;;;5038233;28;20218;-77
2021/11/01 00:42:10;;;;;;;5.55;2.08;;;11.30;99.90;;;;;;5035737;28;20168;-77
2021/11/01 00:44:37;;;;;;;7.30;2.85;;;11.20;99.90;;;;;;5035437;28;20168;-76
2021/11/01 00:47:03;;;;;;;12.70;2.85;;;11.10;99.90;;;;;;5035085;28;20230;-80
2021/11/01 00:49:29;;;;;;;4.65;2.70;;;11.10;99.90;;;;;;5034861;28;20664;-77
2021/11/01 00:51:58;;;;;;;7.25;3.30;;;11.10;99.90;;;;;;5035283;28;20183;-78
2021/11/01 00:54:23;;;;;;;7.88;3.03;;;11.00;99.90;;;;;;5034700;28;20183;-77
2021/11/01 00:57:14;;;;;;;13.25;3.95;;;11.10;99.90;;;;;;5034959;28;20175;-76
2021/11/01 00:59:40;;;;;;;7.22;3.45;;;11.00;99.90;;;;;;5024694;28;20301;-77
2021/11/01 01:02:06;;;;;;;8.60;3.53;;;10.90;99.90;;;;;;5034994;28;20654;-77
2021/11/01 01:04:32;;;;;;;20.10;4.20;;;11.00;99.90;;;;;;5034802;28;20214;-77
2021/11/01 01:06:57;;;;;;;12.40;3.78;;;11.00;99.90;;;;;;5035168;28;20207;-75
2021/11/01 01:09:23;;;;;;;13.55;4.10;;;11.00;99.90;;;;;;5034909;28;20211;-76
2021/11/01 01:11:49;;;;;;;9.43;3.53;;;11.00;99.90;;;;;;5034949;28;20172;-77
2021/11/01 01:14:15;;;;;;;13.45;4.57;;;10.90;99.90;;;;;;5034803;28;20175;-76
2021/11/01 01:16:45;;;;;;;10.77;3.88;;;11.00;99.90;;;;;;5034372;28;20164;-76
2021/11/01 01:19:19;;;;;;;24.52;4.78;;;10.90;99.90;;;;;;5034443;28;20219;-76
2021/11/01 01:24:30;;;;;;;12.13;3.10;;;10.90;99.90;;;;;;5035063;28;20175;-76
2021/11/01 01:26:55;;;;;;;14.82;4.28;;;10.90;99.90;;;;;;5034372;28;20204;-79
2021/11/01 01:29:22;;;;;;;8.77;3.22;;;10.80;99.90;;;;;;5033861;28;20215;-76
2021/11/01 01:31:47;;;;;;;13.35;3.80;;;10.80;99.90;;;;;;5034434;28;20176;-76
2021/11/01 01:34:13;;;;;;;19.83;3.33;;;10.80;99.90;;;;;;5034307;28;20174;-76
2021/11/01 01:36:39;;;;;;;10.20;3.28;;;10.80;99.90;;;;;;5034598;28;20171;-77
2021/11/01 01:39:04;;;;;;;11.18;3.67;;;10.90;99.90;;;;;;5034094;28;20191;-76
2021/11/01 01:41:30;;;;;;;4.88;3.30;;;10.80;99.90;;;;;;5034888;28;20171;-76
2021/11/01 01:43:59;;;;;;;12.20;4.38;;;10.90;99.90;;;;;;5034866;28;20168;-75
2021/11/01 01:46:27;;;;;;;11.57;4.57;;;11.00;99.90;;;;;;5034590;28;20286;-76
2021/11/01 01:48:53;;;;;;;8.63;2.75;;;11.00;99.90;;;;;;5034055;28;20227;-76
2021/11/01 01:51:24;;;;;;;13.63;3.72;;;10.90;99.90;;;;;;5035064;28;20259;-76
2021/11/01 01:53:50;;;;;;;14.57;3.88;;;10.90;99.90;;;;;;5034277;28;20524;-77
2021/11/01 01:56:16;;;;;;;13.98;3.60;;;10.80;99.90;;;;;;5034231;28;20177;-76
2021/11/01 01:58:52;;;;;;;15.48;4.00;;;10.70;99.90;;;;;;5034335;28;20199;-76
2021/11/01 02:01:18;;;;;;;8.48;4.05;;;10.80;99.90;;;;;;5017556;28;20558;-76
2021/11/01 02:03:47;;;;;;;17.25;3.92;;;10.80;99.90;;;;;;5034074;28;20172;-75
2021/11/01 02:06:12;;;;;;;12.07;2.80;;;10.80;99.90;;;;;;5034286;28;20204;-76
2021/11/01 02:09:08;;;;;;;7.38;3.70;;;10.80;99.90;;;;;;5033981;28;20192;-76
2021/11/01 02:12:05;;;;;;;4.60;2.92;;;10.80;99.90;;;;;;5033881;28;20175;-76
2021/11/01 02:15:06;;;;;;;17.55;3.50;;;10.90;99.90;;;;;;5021694;28;20188;-77
2021/11/01 02:17:32;;;;;;;13.40;3.17;;;10.90;99.90;;;;;;5023606;28;20233;-77
2021/11/01 02:20:06;;;;;;;15.70;3.42;;;10.90;99.90;;;;;;5033458;28;20207;-76
2021/11/01 02:22:45;;;;;;;10.23;3.13;;;10.90;99.90;;;;;;5033741;28;20259;-76
2021/11/01 02:25:33;;;;;;;6.93;2.67;;;10.90;99.90;;;;;;5033172;28;20174;-77
2021/11/01 02:27:59;;;;;;;10.80;2.83;;;10.90;99.90;;;;;;5033925;28;20852;-76
2021/11/01 02:30:25;;;;;;;6.20;2.67;;;11.00;99.90;;;;;;5033224;28;20735;-76
2021/11/01 02:32:52;;;;;;;8.45;2.30;;;10.80;99.90;;;;;;5033080;28;20183;-83
2021/11/01 02:35:18;;;;;;;10.70;2.70;;;10.60;99.90;;;;;;5032809;28;20524;-77
2021/11/01 02:37:45;;;;;;;4.72;1.90;;;10.70;99.90;;;;;;5032988;28;20196;-79
2021/11/01 02:40:11;;;;;;;5.13;2.10;;;10.70;99.90;;;;;;5032913;28;20602;-77
2021/11/01 02:42:38;;;;;;;6.72;2.22;;;10.60;99.90;;;;;;5032551;28;20620;-76
2021/11/01 02:45:09;;;;;;;11.35;2.65;;;10.70;99.90;;;;;;5031393;28;20867;-77
2021/11/01 02:47:36;;;;;;;11.70;2.42;;;10.60;99.90;;;;;;5033301;28;20761;-76
2021/11/01 02:50:05;;;;;;;16.20;2.53;;;10.60;99.90;;;;;;5032916;28;20195;-77
2021/11/01 02:52:31;;;;;;;14.70;2.83;;;10.50;99.90;;;;;;5032695;28;20257;-77
2021/11/01 02:54:58;;;;;;;13.85;2.38;;;10.50;99.90;;;;;;5032751;28;20171;-77
2021/11/01 02:57:24;;;;;;;17.95;2.50;;;10.60;99.90;;;;;;5032510;28;20172;-77
2021/11/01 02:59:50;;;;;;;6.65;1.70;;;10.60;99.90;;;;;;5032433;28;20207;-76
2021/11/01 03:02:17;;;;;;;6.32;1.67;;;10.50;99.90;;;;;;5033077;28;20175;-78
2021/11/01 03:04:43;;;;;;;7.43;1.60;;;10.60;99.90;;;;;;5032181;28;20168;-78
2021/11/01 03:07:10;;;;;;;10.38;1.95;;;10.50;99.90;;;;;;5032946;28;20215;-77
2021/11/01 03:09:39;;;;;;;6.95;2.17;;;10.60;99.90;;;;;;5032654;28;20207;-77
2021/11/01 03:12:09;;;;;;;9.57;1.38;;;10.70;99.90;;;;;;5032542;28;20647;-77
2021/11/01 03:14:41;;;;;;;5.72;1.63;;;10.70;99.90;;;;;;5033086;28;20217;-79
2021/11/01 03:17:09;;;;;;;5.00;1.65;;;10.60;99.90;;;;;;5032410;28;20183;-85
2021/11/01 03:19:38;;;;;;;8.30;1.85;;;10.60;99.90;;;;;;5032767;28;20234;-76
2021/11/01 03:22:05;;;;;;;18.75;2.28;;;10.50;99.90;;;;;;5032649;28;20203;-77
2021/11/01 03:24:34;;;;;;;3.55;1.60;;;10.60;99.90;;;;;;5032185;28;20171;-76
2021/11/01 03:27:03;;;;;;;8.75;1.60;;;10.60;99.90;;;;;;5032132;28;20199;-82
2021/11/01 03:29:30;;;;;;;11.80;2.78;;;10.50;99.90;;;;;;5031883;28;20191;-77
2021/11/01 03:31:56;;;;;;;8.55;1.80;;;10.50;99.90;;;;;;5032984;28;20187;-77
2021/11/01 03:34:23;;;;;;;4.95;1.73;;;10.60;99.90;;;;;;5032566;28;20168;-77
2021/11/01 03:36:51;;;;;;;7.43;2.00;;;10.60;99.90;;;;;;5032437;28;20187;-77
2021/11/01 03:39:17;;;;;;;9.85;1.73;;;10.50;99.90;;;;;;5032238;28;20994;-76
2021/11/01 03:41:43;;;;;;;5.78;1.80;;;10.50;99.90;;;;;;5047565;28;20263;-77
2021/11/01 03:44:16;;;;;;;13.05;1.80;;;10.40;99.90;;;;;;5031818;28;20164;-77
2021/11/01 03:46:45;;;;;;;16.42;2.67;;;10.30;99.90;;;;;;5031508;28;20206;-77
2021/11/01 03:49:13;;;;;;;12.73;2.78;;;10.30;99.90;;;;;;5030962;28;20564;-77
2021/11/01 03:52:28;;;;;;;13.75;2.88;;;10.40;99.90;;;;;;5032342;28;20214;-77
2021/11/01 03:54:27;;;;;;;12.65;2.58;;;10.60;99.90;;;;;;5028885;28;20266;-77
2021/11/01 03:56:53;;;;;;;9.48;2.03;;;10.60;99.90;;;;;;5031464;28;20203;-76
2021/11/01 03:59:19;;;;;;;9.27;1.83;;;10.50;99.90;;;;;;5032710;28;20184;-76
2021/11/01 04:01:46;;;;;;;10.70;2.42;;;10.50;99.90;;;;;;5032115;28;20160;-77
2021/11/01 04:04:12;;;;;;;13.70;2.47;;;10.50;99.90;;;;;;5031713;28;20172;-86
2021/11/01 04:06:39;;;;;;;11.05;2.22;;;10.60;99.90;;;;;;5032244;28;20200;-77
2021/11/01 04:09:10;;;;;;;9.02;1.77;;;10.60;99.90;;;;;;5031991;28;20293;-81
2021/11/01 04:11:43;;;;;;;5.70;1.67;;;10.50;99.90;;;;;;5032187;28;20678;-77
2021/11/01 04:14:18;;;;;;;6.20;1.85;;;10.60;99.90;;;;;;5032130;28;20172;-77
2021/11/01 04:16:48;;;;;;;6.22;1.42;;;10.60;99.90;;;;;;5032564;28;20194;-77
2021/11/01 04:21:45;;;;;;;6.95;2.17;;;10.40;99.90;;;;;;5035960;28;20262;-76
2021/11/01 04:24:12;;;;;;;3.22;1.27;;;10.40;99.90;;;;;;5035526;28;20624;-77
2021/11/01 04:26:38;;;;;;;13.07;1.80;;;10.40;99.90;;;;;;5035719;28;20191;-76
2021/11/01 04:29:07;;;;;;;14.02;1.90;;;10.50;99.90;;;;;;5034504;28;20733;-77
2021/11/01 04:31:36;;;;;;;7.50;2.03;;;10.50;99.90;;;;;;5035632;28;20203;-83
2021/11/01 04:34:11;;;;;;;15.30;2.83;;;10.40;99.90;;;;;;5035486;28;20274;-77
2021/11/01 04:36:38;;;;;;;11.32;2.33;;;10.30;99.90;;;;;;5035687;28;20163;-77
2021/11/01 04:39:33;;;;;;;7.00;2.20;;;10.30;99.90;;;;;;5035733;28;20553;-77
2021/11/01 04:54:57;;;;;;;10.80;2.22;;;10.40;99.90;;;;;;5035273;28;20183;-77
2021/11/01 04:57:24;;;;;;;14.75;2.38;;;10.40;99.90;;;;;;5035481;28;20711;-76
2021/11/01 04:59:50;;;;;;;11.27;2.47;;;10.40;99.90;;;;;;5034655;28;20732;-76
2021/11/01 05:02:18;;;;;;;22.48;2.53;;;10.50;99.90;;;;;;5033184;28;20263;-78
2021/11/01 05:04:45;;;;;;;14.82;3.20;;;10.60;99.90;;;;;;5034598;28;20172;-77
2021/11/01 05:07:11;;;;;;;15.52;2.90;;;10.50;99.90;;;;;;5034941;28;20199;-78
2021/11/01 05:09:42;;;;;;;12.73;2.90;;;10.30;99.90;;;;;;5035235;28;20267;-86
2021/11/01 05:14:40;;;;;;;22.73;2.30;;;10.30;99.90;;;;;;5034932;28;20172;-76
2021/11/01 05:19:46;;;;;;;11.30;2.85;;;10.30;99.90;;;;;;5034561;28;20188;-77
2021/11/01 05:22:21;;;;;;;6.60;1.58;;;10.30;99.90;;;;;;5035239;28;20210;-77
2021/11/01 05:25:14;;;;;;;10.85;1.77;;;10.20;99.90;;;;;;5034538;28;20160;-77
2021/11/01 05:30:10;;;;;;;4.65;1.65;;;10.30;99.90;;;;;;5034376;28;20191;-79
2021/11/01 05:32:38;;;;;;;8.88;2.45;;;10.40;99.90;;;;;;5034701;28;20189;-76
2021/11/01 05:35:04;;;;;;;6.07;1.67;;;10.50;99.90;;;;;;5034207;28;20172;-76
2021/11/01 05:37:30;;;;;;;11.40;2.33;;;10.50;99.90;;;;;;5034103;28;20178;-76
2021/11/01 05:39:56;;;;;;;5.78;1.88;;;10.50;99.90;;;;;;5033921;28;20183;-76
2021/11/01 05:42:21;;;;;;;5.53;1.70;;;10.60;99.90;;;;;;5034215;28;20531;-76
2021/11/01 05:44:47;;;;;;;8.63;1.65;;;10.70;99.90;;;;;;5033951;28;20175;-76
2021/11/01 05:47:13;;;;;;;18.92;2.65;;;10.80;99.90;;;;;;5033574;28;20828;-76
2021/11/01 05:49:39;;;;;;;4.47;1.88;;;10.80;99.90;;;;;;5032703;28;20191;-76
2021/11/01 05:52:10;;;;;;;13.35;2.60;;;10.80;99.90;;;;;;5034118;28;20168;-77
2021/11/01 05:54:36;;;;;;;14.20;1.67;;;10.90;99.90;;;;;;5034133;28;20164;-85
2021/11/01 05:57:20;;;;;;;6.80;2.15;;;10.90;99.90;;;;;;5034332;28;20210;-85
2021/11/01 06:00:03;;;;;;;8.23;1.95;;;10.90;99.90;;;;;;5033977;28;20207;-77
2021/11/01 06:05:15;;;;;;;15.57;2.58;;;10.80;99.90;;;;;;5034218;28;20176;-77
2021/11/01 06:15:22;;;;;;;14.00;2.35;;;10.60;99.90;;;;;;5033875;28;20727;-76
2021/11/01 06:17:47;;;;;;;12.15;1.83;;;10.50;99.90;;;;;;5034017;28;20168;-76
2021/11/01 06:20:13;;;;;;;12.02;2.42;;;10.50;99.90;;;;;;5033763;28;20188;-82
2021/11/01 06:22:39;;;;;;;8.80;1.83;;;10.40;99.90;;;;;;5033652;28;20582;-76
2021/11/01 06:25:10;;;;;;;10.25;1.67;;;10.30;99.90;;;;;;5033267;28;20214;-81
2021/11/01 06:27:36;;;;;;;8.23;1.50;;;10.40;99.90;;;;;;5033638;28;20207;-86
2021/11/01 07:15:46;;;;;;;7.30;2.05;;;10.40;99.90;;;;;;5020667;28;20187;-78
2021/11/01 07:18:17;;;;;;;11.88;2.60;;;10.40;99.90;;;;;;5031253;28;20186;-82
2021/11/01 07:21:06;;;;;;;7.82;2.10;;;10.40;99.90;;;;;;5031145;28;20179;-78
2021/11/01 08:28:26;;;;;;;10.23;2.78;;;11.00;99.90;;;;;;5036071;28;20208;-80
2021/11/01 08:41:30;;;;;;;9.23;1.65;;;11.10;99.90;;;;;;5035689;28;20234;-78
2021/11/01 09:03:20;;;;;;;5.07;2.65;;;10.90;99.90;;;;;;5033465;28;20543;-77
2021/11/01 09:09:42;;;;;;;8.43;2.67;;;11.00;99.90;;;;;;5034216;28;20541;-77
2021/11/01 09:26:51;;;;;;;9.13;2.75;;;11.20;99.90;;;;;;5034374;28;20222;-76
2021/11/01 09:42:49;;;;;;;11.07;2.38;;;11.70;99.90;;;;;;5033652;28;20243;-83
2021/11/01 09:45:16;;;;;;;6.75;2.13;;;11.70;99.90;;;;;;5034582;28;20241;-88
2021/11/01 09:47:43;;;;;;;5.15;1.98;;;11.60;99.90;;;;;;5031304;28;20207;-79
2021/11/01 09:50:10;;;;;;;6.43;2.67;;;11.70;99.90;;;;;;5033348;28;20701;-78
2021/11/01 09:52:36;;;;;;;12.93;2.08;;;11.70;99.90;;;;;;5033858;28;20175;-81
2021/11/01 09:55:21;;;;;;;11.43;1.90;;;11.70;99.90;;;;;;5030620;28;20163;-83
2021/11/01 09:59:11;;;;;;;12.85;1.98;;;11.80;99.90;;;;;;5014063;28;20175;-78
2021/11/01 10:00:33;;;;;;;11.65;1.75;;;11.90;99.90;;;;;;5030797;28;20206;-78
2021/11/01 10:02:59;;;;;;;10.77;2.78;;;12.00;99.90;;;;;;5032944;28;20191;-79
2021/11/01 10:05:26;;;;;;;8.55;1.70;;;12.00;99.90;;;;;;5033066;28;20207;-79
2021/11/01 10:07:52;;;;;;;8.82;2.17;;;12.10;99.90;;;;;;5033116;28;20210;-79
2021/11/01 10:10:18;;;;;;;5.80;1.65;;;12.10;99.90;;;;;;5031037;28;20610;-80
2021/11/01 10:12:47;;;;;;;7.82;1.50;;;12.30;99.90;;;;;;5033442;28;20168;-79
2021/11/01 10:18:05;;;;;;;8.15;1.60;;;12.60;99.90;;;;;;5033304;28;20182;-77
2021/11/01 10:20:33;;;;;;;8.65;1.70;;;12.40;99.90;;;;;;5033062;28;20266;-77
2021/11/01 10:22:59;;;;;;;6.82;1.90;;;12.30;99.90;;;;;;5032509;28;20205;-78
2021/11/01 10:25:26;;;;;;;12.05;1.50;;;12.50;99.90;;;;;;5031900;28;20663;-80
2021/11/01 10:27:57;;;;;;;5.75;1.52;;;12.60;99.90;;;;;;5033312;28;20196;-78
2021/11/01 10:30:28;;;;;;;2.95;1.40;;;12.60;99.90;;;;;;5032383;28;20190;-79
2021/11/01 10:32:56;;;;;;;16.33;1.95;;;12.80;99.90;;;;;;5032591;28;20253;-78
2021/11/01 10:35:24;;;;;;;9.15;1.65;;;13.00;99.90;;;;;;5030872;28;20346;-82
2021/11/01 10:38:02;;;;;;;3.90;1.48;;;12.90;99.90;;;;;;5033074;28;20171;-78
2021/11/01 10:40:30;;;;;;;11.35;1.13;;;13.00;99.90;;;;;;5033109;28;20183;-79
2021/11/01 10:43:08;;;;;;;7.53;1.60;;;13.00;99.90;;;;;;5032536;28;20168;-78
2021/11/01 11:13:26;;;;;;;2.72;1.10;;;12.70;99.90;;;;;;5030997;28;20272;-80
2021/11/01 11:15:55;;;;;;;6.25;1.23;;;12.80;99.90;;;;;;5031101;28;20624;-81
2021/11/01 11:49:18;;;;;;;12.55;2.22;;;14.00;99.90;;;;;;5007131;28;20579;-77
2021/11/01 11:52:13;;;;;;;5.75;1.92;;;13.90;99.90;;;;;;5007978;28;20579;-77
2021/11/01 11:54:47;;;;;;;8.20;2.00;;;13.90;99.90;;;;;;4996691;28;20657;-77
2021/11/01 11:57:20;;;;;;;4.93;1.95;;;14.10;99.90;;;;;;5008438;28;20165;-77
2021/11/01 11:59:48;;;;;;;4.70;1.90;;;14.10;99.90;;;;;;5008488;28;20251;-77
2021/11/01 12:02:14;;;;;;;5.57;1.85;;;14.20;99.90;;;;;;5009866;28;20568;-77
2021/11/01 12:04:48;;;;;;;6.78;1.83;;;14.30;99.90;;;;;;5009896;28;20216;-76
2021/11/01 12:07:16;;;;;;;7.78;1.80;;;14.00;99.90;;;;;;5009476;28;20203;-77
2021/11/01 12:10:00;;;;;;;2.70;1.73;;;13.90;99.90;;;;;;5009711;28;20641;-76
2021/11/01 12:17:28;;;;;;;3.65;2.20;;;14.20;99.90;;;;;;5031291;28;20274;-77
2021/11/01 12:19:58;;;;;;;4.53;1.85;;;14.30;99.90;;;;;;5030895;28;20188;-77
2021/11/01 12:22:31;;;;;;;4.43;1.63;;;14.30;99.90;;;;;;5031628;28;20193;-76
2021/11/01 12:25:01;;;;;;;6.20;1.98;;;14.40;99.90;;;;;;5031601;28;20333;-77
2021/11/01 12:27:27;;;;;;;7.43;1.77;;;14.20;99.90;;;;;;5029777;28;20211;-76
2021/11/01 12:29:54;;;;;;;6.80;2.25;;;14.00;99.90;;;;;;5031403;28;20238;-78
2021/11/01 12:32:21;;;;;;;3.83;2.45;;;14.20;99.90;;;;;;5031140;28;20318;-77
2021/11/01 12:34:59;;;;;;;8.63;2.05;;;14.40;99.90;;;;;;5031299;28;20171;-77
2021/11/01 12:37:31;;;;;;;13.70;3.10;;;14.30;99.90;;;;;;5031632;28;20167;-77
2021/11/01 12:40:06;;;;;;;8.23;2.35;;;14.30;99.90;;;;;;5035226;28;20652;-77
2021/11/01 12:45:50;;;;;;;13.93;3.40;;;14.30;99.90;;;;;;5037856;28;20266;-76
2021/11/01 12:48:20;;;;;;;7.63;2.22;;;14.50;99.90;;;;;;5034129;28;20218;-77
2021/11/01 12:59:48;;;;;;;9.32;2.13;;;14.70;99.90;;;;;;5034560;28;20217;-76
2021/11/01 13:02:44;;;;;;;4.05;1.50;;;14.60;99.90;;;;;;5034446;28;20166;-76
2021/11/01 13:05:21;;;;;;;4.13;1.73;;;14.50;99.90;;;;;;5034375;28;20188;-76
2021/11/01 13:07:59;;;;;;;13.25;2.40;;;14.50;99.90;;;;;;5033009;28;20229;-76
2021/11/01 13:19:05;;;;;;;2.40;1.50;;;14.50;99.90;;;;;;5034182;28;20265;-76
2021/11/01 13:21:37;;;;;;;3.08;1.35;;;14.50;99.90;;;;;;5034363;28;20164;-76
2021/11/01 13:24:07;;;;;;;3.90;1.40;;;14.70;99.90;;;;;;5034754;28;20168;-77
2021/11/01 13:26:54;;;;;;;10.48;1.27;;;14.60;99.90;;;;;;5034297;28;20195;-76
2021/11/01 13:37:43;;;;;;;6.13;1.10;;;14.70;99.90;;;;;;5034131;28;20233;-76
2021/11/01 13:40:18;;;;;;;3.60;1.65;;;14.60;99.90;;;;;;5034248;28;20190;-76
2021/11/01 13:42:58;;;;;;;5.78;1.52;;;14.60;99.90;;;;;;5033767;28;20179;-76
2021/11/01 13:45:24;;;;;;;5.75;0.85;;;14.60;99.90;;;;;;5033497;28;20365;-76
2021/11/01 13:47:55;;;;;;;4.95;1.20;;;14.60;99.90;;;;;;5033886;28;20563;-77
2021/11/01 13:50:35;;;;;;;1.08;0.73;;;14.50;99.90;;;;;;5032808;28;20241;-76
2021/11/01 13:53:08;;;;;;;1.45;0.70;;;14.40;99.90;;;;;;5033454;28;20174;-76
2021/11/01 14:00:49;;;;;;;5.78;1.08;;;14.60;99.90;;;;;;5033875;28;20259;-77
2021/11/01 14:14:21;;;;;;;8.23;1.30;;;14.40;99.90;;;;;;5033904;28;20176;-76
2021/11/01 14:16:54;;;;;;;4.28;1.35;;;14.40;99.90;;;;;;5033319;28;20171;-77
2021/11/01 14:27:52;;;;;;;2.50;1.45;;;14.40;99.90;;;;;;5032736;28;20698;-76
2021/11/01 15:00:29;;;;;;;1.55;1.02;;;13.90;99.90;;;;;;5031470;28;20191;-76
2021/11/01 15:18:58;;;;;;;8.65;0.73;;;13.60;99.90;;;;;;5023819;28;20199;-76
2021/11/01 15:24:22;;;;;;;3.20;1.00;;;13.70;99.90;;;;;;5032697;28;20699;-76
2021/11/01 16:18:52;;;;;;;2.03;1.10;;;12.40;99.90;;;;;;5034897;28;20286;-78
2021/11/01 16:21:19;;;;;;;4.63;0.90;;;12.20;99.90;;;;;;5035787;28;20256;-76
2021/11/01 16:23:45;;;;;;;1.02;0.90;;;12.10;99.90;;;;;;5035628;28;20207;-76
2021/11/01 16:28:41;;;;;;;1.10;0.70;;;11.90;99.90;;;;;;5035722;28;20199;-76
2021/11/01 16:31:23;;;;;;;1.58;0.80;;;11.80;99.90;;;;;;5035366;28;20251;-77
2021/11/01 16:33:54;;;;;;;0.88;0.60;;;11.70;99.90;;;;;;5033833;28;20233;-76
2021/11/01 16:39:11;;;;;;;1.38;1.00;;;11.80;99.90;;;;;;5035483;28;20241;-76
2021/11/01 16:41:37;;;;;;;1.52;1.10;;;11.80;99.90;;;;;;5033739;28;20182;-76
2021/11/01 16:46:50;;;;;;;4.25;1.00;;;11.90;99.90;;;;;;5035269;28;20226;-78
2021/11/01 16:49:19;;;;;;;1.40;1.30;;;11.90;99.90;;;;;;5035002;28;20199;-76
2021/11/01 16:51:45;;;;;;;2.25;1.38;;;11.80;99.90;;;;;;5034933;28;20247;-76
2021/11/01 16:54:15;;;;;;;3.50;2.05;;;11.70;99.90;;;;;;5033710;28;20190;-76
2021/11/01 16:59:26;;;;;;;1.63;1.45;;;11.90;99.90;;;;;;5034499;28;20546;-76
2021/11/01 17:01:59;;;;;;;1.85;1.45;;;12.00;99.90;;;;;;5035801;28;20167;-78
2021/11/01 17:04:27;;;;;;;3.97;1.00;;;12.00;99.90;;;;;;5034753;28;20230;-77
2021/11/01 17:07:21;;;;;;;5.50;0.90;;;11.80;99.90;;;;;;5035005;28;20191;-77
2021/11/01 17:10:27;;;;;;;1.80;1.00;;;11.80;99.90;;;;;;5034615;28;20208;-77
2021/11/01 17:24:11;;;;;;;1.73;1.40;;;11.80;99.90;;;;;;4997172;28;20177;-77
2021/11/01 17:27:01;;;;;;;4.00;1.80;;;11.90;99.90;;;;;;5034178;28;20195;-77
2021/11/01 18:37:37;;;;;;;2.97;2.08;;;11.30;99.90;;;;;;5028227;28;20214;-76
2021/11/01 18:51:10;;;;;;;3.75;1.10;;;11.00;99.90;;;;;;5032853;28;20272;-77
2021/11/01 18:53:49;;;;;;;3.58;1.40;;;10.90;99.90;;;;;;5033011;28;20186;-85
2021/11/01 18:56:14;;;;;;;2.40;1.27;;;10.80;99.90;;;;;;5031289;28;20175;-86
2021/11/01 18:58:42;;;;;;;1.27;1.17;;;10.80;99.90;;;;;;5032799;28;20233;-78
2021/11/01 19:01:11;;;;;;;2.63;1.15;;;10.80;99.90;;;;;;5032541;28;20537;-77
2021/11/01 19:03:52;;;;;;;1.63;1.23;;;10.90;99.90;;;;;;5031821;28;20160;-77
2021/11/01 19:06:45;;;;;;;1.63;1.35;;;10.90;99.90;;;;;;5031442;28;20177;-77
2021/11/01 20:04:57;;;;;;;3.20;1.85;;;10.40;99.90;;;;;;5036617;28;20244;-80
2021/11/01 20:10:37;;;;;;;4.25;3.22;;;10.40;99.90;;;;;;5036454;28;20203;-83
2021/11/01 20:16:12;;;;;;;3.55;2.67;;;10.30;99.90;;;;;;5036242;28;20686;-78
2021/11/01 21:25:51;;;;;;;6.15;4.43;;;10.00;99.90;;;;;;5034091;28;20658;-80
2021/11/01 21:28:17;;;;;;;8.13;5.07;;;10.00;99.90;;;;;;5033806;28;20663;-79
2021/11/01 21:30:43;;;;;;;10.18;4.95;;;10.10;99.90;;;;;;5033979;28;20251;-80
2021/11/01 21:33:10;;;;;;;11.68;4.88;;;10.00;99.90;;;;;;5033560;28;20263;-79
2021/11/01 21:35:44;;;;;;;9.57;5.38;;;10.10;99.90;;;;;;5032057;28;20183;-81
2021/11/01 21:38:10;;;;;;;10.43;5.80;;;10.00;99.90;;;;;;5031838;28;20164;-79
2021/11/01 21:40:35;;;;;;;12.40;6.25;;;10.00;99.90;;;;;;5032788;28;20202;-81
2021/11/01 21:43:01;;;;;;;9.95;6.57;;;9.90;99.90;;;;;;5032900;28;20722;-80
2021/11/01 21:45:27;;;;;;;10.00;5.72;;;9.90;99.90;;;;;;5033625;28;20172;-81
2021/11/01 21:47:52;;;;;;;13.63;5.18;;;9.80;99.90;;;;;;5033482;28;20855;-80
2021/11/01 21:50:18;;;;;;;9.25;5.38;;;9.90;99.90;;;;;;5033325;28;20188;-79
2021/11/01 21:52:45;;;;;;;12.32;5.90;;;9.90;99.90;;;;;;5032321;28;20214;-84
2021/11/01 21:55:11;;;;;;;10.05;5.22;;;9.90;99.90;;;;;;5032087;28;20176;-81
2021/11/01 21:57:42;;;;;;;8.50;5.90;;;9.90;99.90;;;;;;5032352;28;20578;-82
2021/11/01 22:00:21;;;;;;;15.20;5.65;;;9.90;99.90;;;;;;5031978;28;20204;-80
2021/11/01 22:16:43;;;;;;;8.00;5.50;;;10.20;99.90;;;;;;5033669;28;20233;-79
2021/11/01 22:24:30;;;;;;;6.22;4.40;;;10.10;99.90;;;;;;5033230;28;20255;-78
2021/11/01 22:44:29;;;;;;;11.27;5.15;;;10.00;99.90;;;;;;5024212;28;20191;-78
2021/11/01 22:57:08;;;;;;;13.52;5.43;;;10.10;99.90;;;;;;5033073;28;20242;-78
2021/11/01 22:59:34;;;;;;;5.57;4.53;;;10.10;99.90;;;;;;5032978;28;20271;-78
2021/11/01 23:02:00;;;;;;;6.10;4.00;;;10.00;99.90;;;;;;5032987;28;20176;-79
2021/11/01 23:33:58;;;;;;;6.47;5.22;;;9.80;99.90;;;;;;5032110;28;20195;-78
2021/11/01 23:36:24;;;;;;;5.20;4.15;;;9.80;99.90;;;;;;5032504;28;20302;-78
2021/11/01 23:38:51;;;;;;;14.80;7.15;;;9.70;99.90;;;;;;5032403;28;20270;-78
2021/11/01 23:41:17;;;;;;;8.80;5.95;;;9.70;99.90;;;;;;5032380;28;20572;-80
2021/11/01 23:43:43;;;;;;;9.02;4.30;;;9.80;99.90;;;;;;5032561;28;20167;-78
2021/11/01 23:46:08;;;;;;;6.35;3.90;;;9.60;99.90;;;;;;5032347;28;20172;-78
2021/11/01 23:48:34;;;;;;;10.15;4.13;;;9.70;99.90;;;;;;5032197;28;20659;-79
2021/11/01 23:51:00;;;;;;;5.50;3.67;;;9.80;99.90;;;;;;5031828;28;20168;-78
2021/11/01 23:55:58;;;;;;;8.93;4.07;;;9.80;99.90;;;;;;5032261;28;20176;-81
2021/11/01 23:58:24;;;;;;;10.05;3.90;;;9.80;99.90;;;;;;5032097;28;20160;-79
